createdAt,value
2022-11-29T00:02:20.537Z,2.70
2022-11-29T00:04:53.282Z,2.70
2022-11-29T00:07:26.089Z,2.70
2022-11-29T00:09:58.730Z,2.66
2022-11-29T00:12:31.305Z,2.60
2022-11-29T00:15:04.015Z,2.60
2022-11-29T00:17:37.274Z,2.60
2022-11-29T00:20:12.488Z,2.50
2022-11-29T00:22:44.939Z,2.50
2022-11-29T00:25:17.852Z,2.50
2022-11-29T00:27:51.515Z,2.50
2022-11-29T00:30:25.005Z,2.50
2022-11-29T00:32:57.691Z,2.46
2022-11-29T00:35:30.362Z,2.40
2022-11-29T00:38:02.938Z,2.40
2022-11-29T00:40:35.674Z,2.40
2022-11-29T00:43:08.234Z,2.40
2022-11-29T00:45:40.850Z,2.40
2022-11-29T00:48:13.360Z,2.40
2022-11-29T00:50:45.958Z,2.40
2022-11-29T00:53:18.511Z,2.40
2022-11-29T00:55:52.366Z,2.40
2022-11-29T00:58:25.949Z,2.30
2022-11-29T01:00:58.694Z,2.30
2022-11-29T01:03:31.699Z,2.30
2022-11-29T01:06:08.502Z,2.30
2022-11-29T01:08:41.642Z,2.30
2022-11-29T01:11:18.167Z,2.30
2022-11-29T01:13:52.186Z,2.30
2022-11-29T01:16:25.514Z,2.30
2022-11-29T01:18:58.606Z,2.20
2022-11-29T01:21:31.809Z,2.20
2022-11-29T01:24:04.662Z,2.20
2022-11-29T01:26:37.212Z,2.20
2022-11-29T01:29:13.315Z,2.20
2022-11-29T01:31:45.851Z,2.24
2022-11-29T01:34:18.279Z,2.30
2022-11-29T01:36:50.791Z,2.30
2022-11-29T01:39:23.243Z,2.30
2022-11-29T01:41:55.774Z,2.30
2022-11-29T01:45:07.970Z,2.30
2022-11-29T01:47:44.994Z,2.32
2022-11-29T01:50:17.796Z,2.32
2022-11-29T01:52:50.720Z,2.40
2022-11-29T01:58:29.609Z,2.40
2022-11-29T02:01:03.247Z,2.40
2022-11-29T02:03:36.013Z,2.40
2022-11-29T02:06:09.143Z,2.42
2022-11-29T02:08:44.135Z,2.44
2022-11-29T02:12:07.444Z,2.48
2022-11-29T02:14:55.315Z,2.46
2022-11-29T02:17:43.426Z,2.48
2022-11-29T02:20:46.050Z,2.46
2022-11-29T02:23:48.951Z,2.40
2022-11-29T02:26:44.547Z,2.40
2022-11-29T02:30:01.770Z,2.40
2022-11-29T02:33:29.161Z,2.40
2022-11-29T02:36:42.546Z,2.40
2022-11-29T02:39:52.943Z,2.40
2022-11-29T02:42:56.804Z,2.40
2022-11-29T02:45:59.835Z,2.40
2022-11-29T02:48:53.637Z,2.40
2022-11-29T02:51:35.461Z,2.40
2022-11-29T02:54:16.904Z,2.40
2022-11-29T02:56:56.910Z,2.40
2022-11-29T02:59:52.048Z,2.40
2022-11-29T03:02:34.776Z,2.44
2022-11-29T03:05:20.045Z,2.50
2022-11-29T03:08:01.848Z,2.50
2022-11-29T03:10:47.314Z,2.50
2022-11-29T03:13:26.720Z,2.50
2022-11-29T03:16:10.116Z,2.50
2022-11-29T03:19:01.297Z,2.60
2022-11-29T03:21:47.565Z,2.60
2022-11-29T03:24:27.147Z,2.60
2022-11-29T03:27:07.740Z,2.60
2022-11-29T03:29:46.973Z,2.60
2022-11-29T03:32:28.875Z,2.60
2022-11-29T03:35:08.682Z,2.66
2022-11-29T03:37:51.658Z,2.70
2022-11-29T03:40:30.643Z,2.70
2022-11-29T03:43:08.943Z,2.70
2022-11-29T03:45:50.230Z,2.70
2022-11-29T03:48:29.043Z,2.70
2022-11-29T03:51:06.977Z,2.70
2022-11-29T03:53:49.770Z,2.80
2022-11-29T03:56:33.479Z,2.80
2022-11-29T03:59:26.471Z,2.80
2022-11-29T04:02:38.552Z,2.80
2022-11-29T04:05:47.295Z,2.80
2022-11-29T04:08:54.236Z,2.80
2022-11-29T04:12:05.826Z,2.80
2022-11-29T04:15:18.690Z,2.80
2022-11-29T04:18:48.037Z,2.80
2022-11-29T04:21:57.158Z,2.80
2022-11-29T04:25:06.730Z,2.80
2022-11-29T04:27:54.586Z,2.80
2022-11-29T04:30:29.220Z,2.80
2022-11-29T04:33:47.978Z,2.80
2022-11-29T04:36:55.638Z,2.80
2022-11-29T04:39:51.966Z,2.80
2022-11-29T04:43:02.543Z,2.80
2022-11-29T04:46:14.438Z,2.80
2022-11-29T04:49:09.798Z,2.80
2022-11-29T04:52:05.663Z,2.80
2022-11-29T04:54:47.217Z,2.80
2022-11-29T04:57:29.408Z,2.80
2022-11-29T05:00:10.492Z,2.80
2022-11-29T05:02:55.544Z,2.80
2022-11-29T05:05:42.495Z,2.80
2022-11-29T05:08:34.588Z,2.80
2022-11-29T05:11:20.827Z,2.80
2022-11-29T05:14:06.286Z,2.80
2022-11-29T05:17:01.066Z,2.80
2022-11-29T05:20:00.960Z,2.78
2022-11-29T05:22:48.931Z,2.78
2022-11-29T05:25:43.852Z,2.80
2022-11-29T05:28:26.854Z,2.80
2022-11-29T05:31:20.123Z,2.80
2022-11-29T05:34:20.124Z,2.80
2022-11-29T05:37:02.566Z,2.80
2022-11-29T05:39:47.990Z,2.80
2022-11-29T05:42:43.030Z,2.86
2022-11-29T05:45:21.856Z,2.90
2022-11-29T05:48:03.326Z,2.88
2022-11-29T05:50:42.628Z,2.90
2022-11-29T05:53:26.246Z,2.90
2022-11-29T05:56:10.571Z,2.86
2022-11-29T05:58:51.810Z,2.90
2022-11-29T06:01:31.857Z,2.90
2022-11-29T06:04:14.774Z,2.90
2022-11-29T06:06:53.926Z,2.90
2022-11-29T06:09:31.846Z,2.90
2022-11-29T06:12:08.330Z,2.90
2022-11-29T06:15:06.446Z,2.90
2022-11-29T06:18:02.853Z,2.98
2022-11-29T06:21:07.615Z,3.00
2022-11-29T06:24:12.360Z,3.00
2022-11-29T06:27:09.761Z,3.00
2022-11-29T06:29:50.055Z,3.00
2022-11-29T06:32:34.265Z,3.08
2022-11-29T06:35:13.527Z,3.10
2022-11-29T06:37:50.717Z,3.10
2022-11-29T06:40:24.390Z,3.10
2022-11-29T06:42:57.488Z,3.10
2022-11-29T06:45:31.875Z,3.14
2022-11-29T06:48:08.012Z,3.20
2022-11-29T06:50:54.874Z,3.20
2022-11-29T06:53:38.434Z,3.26
2022-11-29T06:56:20.670Z,3.30
2022-11-29T06:59:03.405Z,3.30
2022-11-29T07:01:44.473Z,3.30
2022-11-29T07:04:46.756Z,3.38
2022-11-29T07:07:23.970Z,3.40
2022-11-29T07:10:00.746Z,3.40
2022-11-29T07:12:34.677Z,3.40
2022-11-29T07:15:11.022Z,3.42
2022-11-29T07:17:56.260Z,3.50
2022-11-29T07:20:38.158Z,3.50
2022-11-29T07:23:26.714Z,3.50
2022-11-29T07:26:16.893Z,3.50
2022-11-29T07:29:10.708Z,3.50
2022-11-29T07:31:57.171Z,3.64
2022-11-29T07:34:37.418Z,3.90
2022-11-29T07:37:21.473Z,4.10
2022-11-29T07:40:04.170Z,4.20
2022-11-29T07:42:49.891Z,4.30
2022-11-29T07:45:28.938Z,4.30
2022-11-29T07:48:01.704Z,4.40
2022-11-29T07:50:36.402Z,4.50
2022-11-29T07:53:10.578Z,4.40
2022-11-29T07:55:43.130Z,4.30
2022-11-29T07:58:18.122Z,4.20
2022-11-29T08:00:50.809Z,4.20
2022-11-29T08:03:23.352Z,4.20
2022-11-29T08:05:56.124Z,4.20
2022-11-29T08:08:28.681Z,4.20
2022-11-29T08:11:01.582Z,4.20
2022-11-29T08:13:34.157Z,4.20
2022-11-29T08:16:06.846Z,4.30
2022-11-29T08:18:40.415Z,4.30
2022-11-29T08:21:18.093Z,4.40
2022-11-29T08:23:52.148Z,4.40
2022-11-29T08:26:29.827Z,4.40
2022-11-29T08:29:04.152Z,4.40
2022-11-29T08:31:36.883Z,4.40
2022-11-29T08:34:11.520Z,4.40
2022-11-29T08:36:43.955Z,4.50
2022-11-29T08:39:16.611Z,4.50
2022-11-29T08:41:49.732Z,4.50
2022-11-29T08:44:22.420Z,4.52
2022-11-29T08:47:12.656Z,4.60
2022-11-29T08:50:00.063Z,4.60
2022-11-29T08:52:51.443Z,4.60
2022-11-29T08:55:26.453Z,4.70
2022-11-29T08:58:04.462Z,4.70
2022-11-29T09:00:38.054Z,4.80
2022-11-29T09:03:25.236Z,4.80
2022-11-29T09:05:57.805Z,4.90
2022-11-29T09:08:30.338Z,4.90
2022-11-29T09:11:08.040Z,4.90
2022-11-29T09:13:41.024Z,4.90
2022-11-29T09:16:18.101Z,4.96
2022-11-29T09:18:52.088Z,5.00
2022-11-29T09:21:26.547Z,5.00
2022-11-29T09:24:02.877Z,5.00
2022-11-29T09:26:40.825Z,5.10
2022-11-29T09:29:13.636Z,5.10
2022-11-29T09:31:46.561Z,5.10
2022-11-29T09:34:19.929Z,5.10
2022-11-29T09:36:52.491Z,5.10
2022-11-29T09:39:25.276Z,5.08
2022-11-29T09:42:36.225Z,5.10
2022-11-29T09:45:16.825Z,5.10
2022-11-29T09:48:13.357Z,5.10
2022-11-29T09:50:53.352Z,5.12
2022-11-29T09:53:43.747Z,5.18
2022-11-29T09:56:29.804Z,5.20
2022-11-29T09:59:06.918Z,5.20
2022-11-29T10:01:44.165Z,5.20
2022-11-29T10:04:24.009Z,5.20
2022-11-29T10:07:07.401Z,5.20
2022-11-29T10:09:46.119Z,5.20
2022-11-29T10:12:23.137Z,5.20
2022-11-29T10:15:03.776Z,5.20
2022-11-29T10:17:42.845Z,5.30
2022-11-29T10:20:20.994Z,5.30
2022-11-29T10:22:56.995Z,5.30
2022-11-29T10:25:35.087Z,5.36
2022-11-29T10:28:14.567Z,5.40
2022-11-29T10:30:48.476Z,5.40
2022-11-29T10:33:26.527Z,5.50
2022-11-29T10:36:04.271Z,5.60
2022-11-29T10:38:36.932Z,5.70
2022-11-29T10:41:14.719Z,5.80
2022-11-29T10:43:47.616Z,5.80
2022-11-29T10:46:29.995Z,5.90
2022-11-29T10:49:06.535Z,5.90
2022-11-29T10:51:39.349Z,5.90
2022-11-29T10:54:28.423Z,5.98
2022-11-29T10:57:02.315Z,6.04
2022-11-29T10:59:35.113Z,6.10
2022-11-29T11:02:16.720Z,6.10
2022-11-29T11:04:50.329Z,6.10
2022-11-29T11:07:33.412Z,6.10
2022-11-29T11:10:23.289Z,6.10
2022-11-29T11:13:08.666Z,6.14
2022-11-29T11:15:42.059Z,6.20
2022-11-29T11:18:25.618Z,6.30
2022-11-29T11:21:02.137Z,6.40
2022-11-29T11:23:42.344Z,6.50
2022-11-29T11:26:17.374Z,6.40
2022-11-29T11:28:57.025Z,6.40
2022-11-29T11:31:35.531Z,6.40
2022-11-29T11:34:34.512Z,6.40
2022-11-29T11:37:26.484Z,6.48
2022-11-29T11:40:01.635Z,6.40
2022-11-29T11:42:39.762Z,6.40
2022-11-29T11:45:32.516Z,6.40
2022-11-29T11:48:12.899Z,6.40
2022-11-29T11:50:52.167Z,6.50
2022-11-29T11:53:28.901Z,6.58
2022-11-29T11:56:05.490Z,6.60
2022-11-29T11:58:41.312Z,6.60
2022-11-29T12:01:30.503Z,6.60
2022-11-29T12:04:13.086Z,6.60
2022-11-29T12:06:53.471Z,6.66
2022-11-29T12:09:36.453Z,6.70
2022-11-29T12:12:20.926Z,6.70
2022-11-29T12:15:00.945Z,6.70
2022-11-29T12:17:39.364Z,6.78
2022-11-29T12:20:29.092Z,6.80
2022-11-29T12:23:23.072Z,6.80
2022-11-29T12:26:00.435Z,6.80
2022-11-29T12:28:36.500Z,6.80
2022-11-29T12:31:24.305Z,6.80
2022-11-29T12:34:11.307Z,6.82
2022-11-29T12:36:53.288Z,6.88
2022-11-29T12:39:57.111Z,6.90
2022-11-29T12:42:47.662Z,6.90
2022-11-29T12:45:38.495Z,7.00
2022-11-29T12:48:18.954Z,7.14
2022-11-29T12:51:02.927Z,7.30
2022-11-29T12:53:55.282Z,7.40
2022-11-29T12:56:37.179Z,7.40
2022-11-29T12:59:32.788Z,7.40
2022-11-29T13:02:27.375Z,7.40
2022-11-29T13:05:07.802Z,7.30
2022-11-29T13:07:52.087Z,7.20
2022-11-29T13:10:34.584Z,7.20
2022-11-29T13:13:21.051Z,7.20
2022-11-29T13:16:02.583Z,7.16
2022-11-29T13:18:43.200Z,7.10
2022-11-29T13:21:20.425Z,7.00
2022-11-29T13:24:08.241Z,6.90
2022-11-29T13:26:43.296Z,6.80
2022-11-29T13:29:19.859Z,6.80
2022-11-29T13:31:53.111Z,6.70
2022-11-29T13:34:31.465Z,6.70
2022-11-29T13:37:19.148Z,6.60
2022-11-29T13:40:08.160Z,6.60
2022-11-29T13:42:48.010Z,6.56
2022-11-29T13:45:27.625Z,6.50
2022-11-29T13:48:02.069Z,6.50
2022-11-29T13:50:45.090Z,6.50
2022-11-29T13:53:21.798Z,6.50
2022-11-29T13:56:01.929Z,6.50
2022-11-29T13:58:42.439Z,6.48
2022-11-29T14:01:15.054Z,6.48
2022-11-29T14:03:59.768Z,6.50
2022-11-29T14:06:39.318Z,6.40
2022-11-29T14:09:34.397Z,6.40
2022-11-29T14:12:26.502Z,6.40
2022-11-29T14:15:05.681Z,6.40
2022-11-29T14:17:53.654Z,6.40
2022-11-29T14:23:41.844Z,6.12
2022-11-29T14:42:18.919Z,5.80
2022-11-29T14:44:56.183Z,5.80
2022-11-29T14:47:33.883Z,5.70
2022-11-29T15:00:20.568Z,5.36
2022-11-29T15:02:57.631Z,5.30
2022-11-29T15:05:37.430Z,5.30
2022-11-29T15:08:19.079Z,5.20
2022-11-29T15:10:58.416Z,5.18
2022-11-29T15:13:34.875Z,5.10
2022-11-29T15:16:36.983Z,5.08
2022-11-29T15:19:55.357Z,5.00
2022-11-29T15:22:35.295Z,4.90
2022-11-29T15:25:16.277Z,4.90
2022-11-29T15:27:57.744Z,4.80
2022-11-29T15:30:38.493Z,4.74
2022-11-29T15:33:22.776Z,4.70
2022-11-29T15:35:57.815Z,4.70
2022-11-29T15:38:30.643Z,4.68
2022-11-29T15:41:03.541Z,4.60
2022-11-29T15:43:40.297Z,4.60
2022-11-29T15:46:23.114Z,4.60
2022-11-29T15:48:55.937Z,4.60
2022-11-29T15:51:35.255Z,4.60
2022-11-29T15:54:13.785Z,4.60
2022-11-29T15:56:52.057Z,4.52
2022-11-29T15:59:34.985Z,4.50
2022-11-29T16:02:17.273Z,4.50
2022-11-29T16:04:53.518Z,4.50
2022-11-29T16:07:29.279Z,4.50
2022-11-29T16:10:11.284Z,4.40
2022-11-29T16:12:57.864Z,4.40
2022-11-29T16:15:34.373Z,4.40
2022-11-29T16:18:15.551Z,4.40
2022-11-29T16:21:01.729Z,4.40
2022-11-29T16:23:41.430Z,4.40
2022-11-29T16:26:20.185Z,4.40
2022-11-29T16:28:56.443Z,4.38
2022-11-29T16:31:36.929Z,4.30
2022-11-29T16:34:15.889Z,4.30
2022-11-29T16:36:48.657Z,4.30
2022-11-29T16:39:26.315Z,4.30
2022-11-29T16:42:20.524Z,4.30
2022-11-29T16:45:07.675Z,4.30
2022-11-29T16:47:58.264Z,4.40
2022-11-29T16:50:32.637Z,4.40
2022-11-29T16:53:38.201Z,4.40
2022-11-29T16:56:15.058Z,4.50
2022-11-29T16:59:16.928Z,4.50
2022-11-29T17:01:46.101Z,4.50
2022-11-29T17:04:23.728Z,4.50
2022-11-29T17:06:58.758Z,4.50
2022-11-29T17:09:34.478Z,4.52
2022-11-29T17:12:07.546Z,4.50
2022-11-29T17:14:40.511Z,4.50
2022-11-29T17:17:18.881Z,4.50
2022-11-29T17:19:51.945Z,4.50
2022-11-29T17:22:24.823Z,4.50
2022-11-29T17:24:57.731Z,4.40
2022-11-29T17:27:30.523Z,4.40
2022-11-29T17:30:03.686Z,4.40
2022-11-29T17:32:38.151Z,4.30
2022-11-29T17:35:12.021Z,4.30
2022-11-29T17:37:44.746Z,4.30
2022-11-29T17:40:19.033Z,4.20
2022-11-29T17:42:52.053Z,4.20
2022-11-29T17:45:24.994Z,4.20
2022-11-29T17:47:59.927Z,4.10
2022-11-29T17:50:32.915Z,4.10
2022-11-29T17:53:06.411Z,4.00
2022-11-29T17:55:39.661Z,4.00
2022-11-29T17:58:14.102Z,3.90
2022-11-29T18:00:47.058Z,3.90
2022-11-29T18:03:20.437Z,3.86
2022-11-29T18:05:53.824Z,3.82
2022-11-29T18:08:26.586Z,3.80
2022-11-29T18:11:08.308Z,3.80
2022-11-29T18:13:41.517Z,3.80
2022-11-29T18:16:17.117Z,3.80
2022-11-29T18:18:54.905Z,3.80
2022-11-29T18:21:28.055Z,3.80
2022-11-29T18:24:04.748Z,3.80
2022-11-29T18:26:38.797Z,3.76
2022-11-29T18:29:12.568Z,3.70
2022-11-29T18:31:47.420Z,3.70
2022-11-29T18:34:20.170Z,3.70
2022-11-29T18:36:53.273Z,3.70
2022-11-29T18:39:26.179Z,3.60
2022-11-29T18:41:59.097Z,3.60
2022-11-29T18:44:31.902Z,3.60
2022-11-29T18:47:06.114Z,3.60
2022-11-29T18:49:38.987Z,3.60
2022-11-29T18:52:12.160Z,3.60
2022-11-29T18:54:45.471Z,3.52
2022-11-29T18:57:18.462Z,3.50
2022-11-29T18:59:51.314Z,3.50
2022-11-29T19:02:24.086Z,3.40
2022-11-29T19:04:57.233Z,3.40
2022-11-29T19:07:31.599Z,3.30
2022-11-29T19:10:04.670Z,3.30
2022-11-29T19:12:37.562Z,3.20
2022-11-29T19:15:12.718Z,3.20
2022-11-29T19:17:45.510Z,3.10
2022-11-29T19:20:18.760Z,3.00
2022-11-29T19:22:53.848Z,2.92
2022-11-29T19:25:30.453Z,2.90
2022-11-29T19:28:03.231Z,2.80
2022-11-29T19:30:37.015Z,2.70
2022-11-29T19:33:09.958Z,2.68
2022-11-29T19:35:42.985Z,2.60
2022-11-29T19:38:17.072Z,2.50
2022-11-29T19:40:50.135Z,2.40
2022-11-29T19:43:22.959Z,2.22
2022-11-29T19:45:55.844Z,2.10
2022-11-29T19:48:28.980Z,1.92
2022-11-29T19:51:04.274Z,1.80
2022-11-29T19:53:37.739Z,1.80
2022-11-29T19:56:13.736Z,1.70
2022-11-29T19:58:46.855Z,1.70
2022-11-29T20:01:28.126Z,1.60
2022-11-29T20:04:02.326Z,1.60
2022-11-29T20:06:35.454Z,1.54
2022-11-29T20:09:09.178Z,1.56
2022-11-29T20:11:41.996Z,1.50
2022-11-29T20:14:16.970Z,1.50
2022-11-29T20:16:49.828Z,1.50
2022-11-29T20:19:22.771Z,1.50
2022-11-29T20:21:55.656Z,1.50
2022-11-29T20:24:30.410Z,1.50
2022-11-29T20:27:05.386Z,1.50
2022-11-29T20:29:38.127Z,1.50
2022-11-29T20:32:11.223Z,1.50
2022-11-29T20:34:48.144Z,1.50
2022-11-29T20:37:39.380Z,1.42
2022-11-29T20:40:21.320Z,1.40
2022-11-29T20:43:13.158Z,1.40
2022-11-29T20:45:47.181Z,1.40
2022-11-29T20:48:24.040Z,1.30
2022-11-29T20:51:01.256Z,1.30
2022-11-29T20:53:40.349Z,1.22
2022-11-29T20:56:13.955Z,1.20
2022-11-29T20:58:46.733Z,1.20
2022-11-29T21:01:19.651Z,1.20
2022-11-29T21:03:52.474Z,1.10
2022-11-29T21:06:25.247Z,1.10
2022-11-29T21:08:59.198Z,1.10
2022-11-29T21:11:33.210Z,1.10
2022-11-29T21:14:09.273Z,1.02
2022-11-29T21:16:43.034Z,1.00
2022-11-29T21:19:21.696Z,1.00
2022-11-29T21:22:07.120Z,1.00
2022-11-29T21:24:49.070Z,0.96
2022-11-29T21:27:30.125Z,0.92
2022-11-29T21:30:05.832Z,0.90
2022-11-29T21:32:40.254Z,0.90
2022-11-29T21:35:13.588Z,0.90
2022-11-29T21:37:47.222Z,0.90
2022-11-29T21:40:20.279Z,0.90
2022-11-29T21:42:53.135Z,0.90
2022-11-29T21:45:28.840Z,0.90
2022-11-29T21:48:03.741Z,0.90
2022-11-29T21:50:36.485Z,0.90
2022-11-29T21:53:09.408Z,0.90
2022-11-29T21:55:42.216Z,0.90
2022-11-29T21:58:14.921Z,0.90
2022-11-29T22:00:47.887Z,0.80
2022-11-29T22:03:20.782Z,0.80
2022-11-29T22:05:53.774Z,0.80
2022-11-29T22:08:26.683Z,0.80
2022-11-29T22:11:07.381Z,0.80
2022-11-29T22:14:01.161Z,0.80
2022-11-29T22:16:34.080Z,0.80
2022-11-29T22:19:06.970Z,0.76
2022-11-29T22:21:39.940Z,0.74
2022-11-29T22:24:14.359Z,0.70
2022-11-29T22:26:47.933Z,0.70
2022-11-29T22:29:21.184Z,0.70
2022-11-29T22:31:56.228Z,0.70
2022-11-29T22:34:29.439Z,0.70
2022-11-29T22:37:02.185Z,0.70
2022-11-29T22:39:34.900Z,0.70
2022-11-29T22:42:07.947Z,0.70
2022-11-29T22:44:40.766Z,0.70
2022-11-29T22:47:13.607Z,0.70
2022-11-29T22:49:46.362Z,0.70
2022-11-29T22:52:19.222Z,0.70
2022-11-29T22:54:51.959Z,0.70
2022-11-29T22:57:24.747Z,0.70
2022-11-29T22:59:57.618Z,0.70
2022-11-29T23:02:30.604Z,0.70
2022-11-29T23:05:03.576Z,0.60
2022-11-29T23:07:36.419Z,0.60
2022-11-29T23:10:11.548Z,0.60
2022-11-29T23:12:44.766Z,0.60
2022-11-29T23:15:17.742Z,0.60
2022-11-29T23:17:50.588Z,0.60
2022-11-29T23:20:23.385Z,0.58
2022-11-29T23:22:56.855Z,0.50
2022-11-29T23:25:30.160Z,0.50
2022-11-29T23:28:03.031Z,0.50
2022-11-29T23:30:36.054Z,0.50
2022-11-29T23:33:08.917Z,0.50
2022-11-29T23:35:41.637Z,0.50
2022-11-29T23:38:14.717Z,0.50
2022-11-29T23:40:47.845Z,0.44
2022-11-29T23:43:20.815Z,0.40
2022-11-29T23:45:53.886Z,0.40
2022-11-29T23:48:27.391Z,0.40
2022-11-29T23:51:00.176Z,0.40
2022-11-29T23:53:33.506Z,0.40
2022-11-29T23:56:08.867Z,0.40
2022-11-29T23:58:41.961Z,0.40
